Time;durP1;ratioP1;P1;durP2;ratioP2;P2;SDS_P1;SDS_P2;PMS_P1;PMS_P2;Temp;Humidity;BMP_temperature;BMP_pressure;BME280_temperature;BME280_humidity;BME280_pressure;Samples;Min_cycle;Max_cycle;Signal;HPM_P1;HPM_P2
2022/01/18 03:20:22;;;;;;;;;;;;;;;;;;;;;
2022/01/18 05:01:49;;;;;;;;;;;;;;;;;;;;;
2022/01/18 06:07:16;;;;;;;11.80;2.80;;;;;;;-1.57;87.87;101054.27;105164;1281;71446;-76
2022/01/18 06:35:16;;;;;;;;;;;;;;;;;;;;;
2022/01/18 06:40:29;;;;;;;;;;;;;;;;;;;;;
2022/01/18 07:23:50;;;;;;;17.00;5.40;;;;;;;-0.56;85.23;101159.59;103019;1300;69408;-75
2022/01/18 07:56:44;;;;;;;;;;;;;;;;;;;;;
2022/01/18 08:07:26;;;;;;;;;;;;;;;;;;;;;
2022/01/18 11:29:22;;;;;;;7.00;2.20;;;;;;;17.40;28.22;101281.11;103458;1294;59542;-76
2022/01/18 12:01:13;;;;;;;7.90;2.40;;;;;;;14.20;32.93;101270.86;103103;1300;60735;-76
2022/01/18 12:04:05;;;;;;;7.40;2.20;;;;;;;13.78;33.59;101278.70;102452;1297;71998;-76
2022/01/18 12:06:55;;;;;;;6.50;1.90;;;;;;;13.65;33.96;101283.44;102767;1296;68134;-76
2022/01/18 12:10:09;;;;;;;8.20;2.50;;;;;;;13.31;34.35;101277.94;102755;1297;72849;-76
2022/01/18 12:13:11;;;;;;;9.00;2.80;;;;;;;13.05;34.92;101276.36;103226;1291;59996;-76
2022/01/18 12:16:26;;;;;;;8.20;2.60;;;;;;;12.96;35.49;101277.80;103846;1286;63591;-76
2022/01/18 12:19:42;;;;;;;7.60;2.60;;;;;;;12.77;35.65;101280.36;104034;1286;71507;-76
2022/01/18 12:23:03;;;;;;;10.00;2.50;;;;;;;12.25;36.32;101292.70;104040;1286;68429;-77
2022/01/18 12:26:21;;;;;;;7.50;2.40;;;;;;;12.03;37.12;101288.11;103558;1286;72255;-77
2022/01/18 12:32:56;;;;;;;9.60;2.90;;;;;;;11.29;38.33;101289.64;104361;1284;60619;-76
2022/01/18 12:36:29;;;;;;;8.30;2.50;;;;;;;11.04;39.16;101290.76;104019;1285;72331;-76
2022/01/18 12:39:21;;;;;;;9.80;2.90;;;;;;;10.60;39.90;101294.10;104003;1285;68279;-77
2022/01/18 12:45:53;;;;;;;9.50;2.60;;;;;;;9.75;41.68;101305.54;104340;1284;59420;-76
2022/01/18 12:48:45;;;;;;;8.70;2.60;;;;;;;9.29;42.34;101306.93;104548;1284;59409;-76
2022/01/18 12:51:34;;;;;;;8.30;2.60;;;;;;;8.92;43.43;101303.02;104379;1285;71275;-76
2022/01/18 12:54:42;;;;;;;8.80;2.70;;;;;;;8.59;44.34;101308.52;103908;1285;67493;-75
2022/01/18 12:57:35;;;;;;;8.60;2.10;;;;;;;7.80;45.87;101310.13;104342;1285;73221;-76
2022/01/18 13:00:26;;;;;;;10.50;2.70;;;;;;;7.09;47.45;101318.59;104176;1284;60056;-76
2022/01/18 13:03:37;;;;;;;9.40;2.70;;;;;;;6.57;49.08;101321.13;104360;1278;59730;-75
2022/01/18 13:06:32;;;;;;;8.50;2.40;;;;;;;6.07;50.33;101328.73;104855;1277;73106;-75
2022/01/18 13:09:21;;;;;;;7.80;2.40;;;;;;;5.59;52.09;101328.58;104827;1277;66861;-75
2022/01/18 13:12:14;;;;;;;7.40;2.70;;;;;;;5.22;53.39;101327.78;105003;1277;71815;-76
2022/01/18 13:15:08;;;;;;;10.20;2.40;;;;;;;4.82;54.49;101332.50;105080;1277;59931;-75
2022/01/18 13:24:46;;;;;;;9.60;1.80;;;;;;;3.70;58.34;101355.08;105124;1277;68283;-75
2022/01/18 13:27:45;;;;;;;7.80;2.30;;;;;;;3.49;59.20;101367.09;104862;1277;70717;-75
2022/01/18 13:30:52;;;;;;;7.90;2.20;;;;;;;3.32;59.88;101358.06;104846;1277;59371;-74
2022/01/18 13:34:01;;;;;;;8.30;2.60;;;;;;;3.17;60.64;101365.30;105005;1277;59479;-75
2022/01/18 13:36:56;;;;;;;7.70;2.20;;;;;;;3.04;61.08;101362.29;104070;1277;1003456;-75
2022/01/18 13:39:56;;;;;;;7.90;1.90;;;;;;;2.92;61.08;101359.08;104943;1277;66788;-75
2022/01/18 13:43:06;;;;;;;8.50;1.80;;;;;;;2.80;61.68;101356.41;105065;1276;71675;-74
2022/01/18 13:46:10;;;;;;;9.80;2.30;;;;;;;2.64;62.04;101355.05;105022;1277;59956;-76
2022/01/18 13:49:11;;;;;;;7.10;1.80;;;;;;;2.50;62.03;101355.54;104696;1277;59470;-75
2022/01/18 13:52:09;;;;;;;7.70;2.10;;;;;;;2.39;62.39;101357.20;104741;1277;71597;-75
2022/01/18 13:54:58;;;;;;;8.70;2.50;;;;;;;2.31;62.51;101361.58;104760;1277;67975;-75
2022/01/18 13:57:58;;;;;;;8.80;2.10;;;;;;;2.25;62.32;101359.98;104631;1277;71872;-75
2022/01/18 14:00:49;;;;;;;11.00;2.80;;;;;;;2.17;62.88;101360.50;104815;1277;59917;-75
2022/01/18 14:03:43;;;;;;;8.90;2.80;;;;;;;2.09;62.82;101363.66;104838;1277;59429;-75
2022/01/18 14:06:41;;;;;;;10.20;2.90;;;;;;;2.00;62.97;101360.34;104275;1276;1003909;-74
2022/01/18 14:09:30;;;;;;;11.20;3.50;;;;;;;1.94;63.07;101367.81;103978;1277;1003001;-75
2022/01/18 14:12:33;;;;;;;12.10;4.10;;;;;;;1.87;63.18;101366.39;104540;1278;73183;-74
2022/01/18 14:15:55;;;;;;;11.50;4.30;;;;;;;1.80;63.77;101364.98;104908;1277;59835;-75
2022/01/18 14:19:10;;;;;;;13.60;4.70;;;;;;;1.70;64.33;101352.91;104180;1283;59547;-76
2022/01/18 14:22:26;;;;;;;11.90;4.00;;;;;;;1.61;64.50;101358.34;104537;1283;70181;-75
2022/01/18 14:25:42;;;;;;;;;;;;;;;;;;;;;
2022/01/18 14:29:15;;;;;;;9.90;2.70;;;;;;;1.42;65.26;101372.19;104154;1283;73195;-75
2022/01/18 14:32:40;;;;;;;12.50;2.70;;;;;;;1.31;65.60;101370.27;104230;1283;59776;-75
2022/01/18 14:36:28;;;;;;;10.10;2.60;;;;;;;1.20;66.29;101359.81;104300;1283;60498;-74
2022/01/18 14:39:27;;;;;;;11.20;3.00;;;;;;;1.11;66.09;101356.83;104230;1283;72899;-75
2022/01/18 14:50:47;;;;;;;12.90;3.80;;;;;;;0.82;66.98;101375.50;104742;1283;59340;-75
2022/01/18 14:53:38;;;;;;;13.10;4.20;;;;;;;0.74;67.91;101375.80;104563;1283;59708;-76
2022/01/18 14:56:47;;;;;;;12.10;4.20;;;;;;;0.67;68.64;101381.48;104815;1277;70922;-75
2022/01/18 14:59:53;;;;;;;11.30;4.20;;;;;;;0.61;69.29;101387.70;104877;1277;68063;-75
2022/01/18 15:03:06;;;;;;;14.00;5.10;;;;;;;0.55;69.51;101387.10;104818;1277;73067;-75
2022/01/18 15:06:00;;;;;;;14.10;5.00;;;;;;;0.47;70.01;101385.30;104574;1277;59935;-76
2022/01/18 15:10:26;;;;;;;14.50;5.30;;;;;;;0.41;70.51;101383.47;104594;1277;59288;-75
2022/01/18 15:14:21;;;;;;;15.80;5.00;;;;;;;0.31;71.38;101399.33;104550;1283;71084;-74
2022/01/18 15:17:55;;;;;;;16.20;5.80;;;;;;;0.24;72.13;101400.63;104964;1283;65695;-76
2022/01/18 15:21:01;;;;;;;15.30;5.30;;;;;;;0.18;72.16;101400.71;104063;1283;71765;-75
2022/01/18 15:23:54;;;;;;;14.00;5.60;;;;;;;0.13;72.78;101394.84;104190;1284;59328;-75
2022/01/18 15:27:20;;;;;;;21.70;7.10;;;;;;;0.07;73.42;101389.69;104199;1283;60353;-74
2022/01/18 15:30:27;;;;;;;19.40;7.80;;;;;;;0.01;73.70;101390.29;104451;1283;71753;-76
2022/01/18 15:33:21;;;;;;;21.20;7.70;;;;;;;-0.03;74.35;101394.88;104590;1283;68230;-76
2022/01/18 15:36:47;;;;;;;19.40;7.00;;;;;;;-0.06;74.91;101395.42;104407;1283;71547;-76
2022/01/18 15:39:39;;;;;;;26.40;7.70;;;;;;;-0.08;75.38;101391.79;103926;1285;59476;-76
2022/01/18 15:42:46;;;;;;;22.00;7.30;;;;;;;-0.10;75.06;101387.10;104026;1283;59495;-75
2022/01/18 15:45:47;;;;;;;19.20;6.70;;;;;;;-0.11;75.64;101384.67;104477;1283;72722;-77
2022/01/18 15:48:39;;;;;;;18.60;6.70;;;;;;;-0.12;75.73;101378.60;104340;1283;68447;-76
2022/01/18 15:51:37;;;;;;;16.70;6.80;;;;;;;-0.14;76.06;101374.94;104702;1278;73072;-76
2022/01/18 15:54:41;;;;;;;16.70;5.30;;;;;;;-0.18;76.14;101367.48;104841;1277;59902;-76
2022/01/18 15:57:44;;;;;;;20.30;6.50;;;;;;;-0.18;76.69;101375.70;105072;1277;60955;-76
2022/01/18 16:00:35;;;;;;;20.30;6.60;;;;;;;-0.23;76.70;101374.36;105200;1277;72587;-76
2022/01/18 16:03:51;;;;;;;20.90;8.00;;;;;;;-0.26;76.87;101379.10;105153;1277;68707;-75
2022/01/18 16:06:44;;;;;;;17.30;6.60;;;;;;;-0.31;77.34;101384.56;104745;1277;73325;-75
2022/01/18 16:09:35;;;;;;;18.80;6.60;;;;;;;-0.37;77.58;101384.98;103916;1277;1004304;-75
2022/01/18 16:12:34;;;;;;;18.40;7.40;;;;;;;-0.40;78.61;101379.79;104737;1276;59400;-76
2022/01/18 16:15:45;;;;;;;17.10;6.00;;;;;;;-0.44;78.22;101381.93;103971;1277;1003558;-76
2022/01/18 16:18:40;;;;;;;15.60;6.20;;;;;;;-0.47;78.76;101382.30;105276;1274;68346;-76
2022/01/18 16:21:43;;;;;;;18.70;7.10;;;;;;;-0.51;78.82;101382.52;105298;1274;71778;-75
2022/01/18 16:24:34;;;;;;;26.40;8.00;;;;;;;-0.54;79.09;101384.30;104980;1274;59281;-76
2022/01/18 16:27:36;;;;;;;12.90;4.80;;;;;;;-0.54;78.82;101384.65;105253;1274;60582;-76
2022/01/18 16:30:43;;;;;;;19.90;8.10;;;;;;;-0.56;79.22;101375.95;105117;1274;72756;-75
2022/01/18 16:33:33;;;;;;;22.10;7.50;;;;;;;-0.56;79.15;101374.91;105052;1273;68318;-75
2022/01/18 16:37:01;;;;;;;18.10;6.60;;;;;;;-0.56;79.70;101373.67;105457;1271;73061;-76
2022/01/18 16:39:52;;;;;;;14.80;5.20;;;;;;;-0.59;79.33;101359.08;105029;1273;59226;-76
2022/01/18 16:43:01;;;;;;;18.60;5.60;;;;;;;-0.54;79.90;101359.01;105086;1271;60440;-75
2022/01/18 16:46:01;;;;;;;18.80;5.90;;;;;;;-0.56;79.83;101351.02;105110;1271;72582;-75
2022/01/18 16:48:54;;;;;;;23.90;7.50;;;;;;;-0.59;80.06;101350.00;105029;1271;68084;-76
2022/01/18 16:52:00;;;;;;;25.10;7.80;;;;;;;-0.64;80.48;101347.96;104993;1274;71431;-76
2022/01/18 16:55:48;;;;;;;;;;;;;;;;;;;;;
2022/01/18 16:59:00;;;;;;;18.00;5.90;;;;;;;-0.71;81.55;101340.02;105058;1271;59426;-75
2022/01/18 17:02:04;;;;;;;20.70;6.70;;;;;;;-0.73;81.86;101334.80;105350;1271;72522;-76
2022/01/18 17:04:58;;;;;;;18.30;6.30;;;;;;;-0.74;82.09;101331.16;105131;1271;68633;-76
2022/01/18 17:08:51;;;;;;;;;;;;;;;;;;;;;
2022/01/18 17:12:44;;;;;;;25.80;7.10;;;;;;;-0.74;82.66;101314.09;105063;1274;59854;-76
2022/01/18 17:15:44;;;;;;;19.00;6.20;;;;;;;-0.72;82.42;101314.23;105150;1274;60786;-76
2022/01/18 17:18:45;;;;;;;20.10;6.20;;;;;;;-0.70;83.17;101309.86;105038;1274;72402;-75
2022/01/18 17:21:38;;;;;;;25.40;6.60;;;;;;;-0.67;83.56;101306.16;104032;1274;1003470;-76
2022/01/18 17:24:31;;;;;;;17.80;5.50;;;;;;;-0.65;83.32;101293.94;104744;1274;72701;-76
2022/01/18 17:27:19;;;;;;;18.50;6.10;;;;;;;-0.64;83.35;101296.71;104822;1274;59356;-76
2022/01/18 17:30:32;;;;;;;21.50;5.90;;;;;;;-0.64;83.68;101298.27;104927;1273;60554;-76
2022/01/18 17:33:26;;;;;;;20.20;5.90;;;;;;;-0.63;84.11;101294.79;105250;1273;71781;-76
2022/01/18 17:36:16;;;;;;;16.90;5.90;;;;;;;-0.63;84.31;101295.48;105016;1274;67078;-76
2022/01/18 17:39:39;;;;;;;14.90;5.40;;;;;;;-0.63;84.60;101292.00;105227;1274;72866;-76
2022/01/18 17:42:31;;;;;;;18.10;5.00;;;;;;;-0.62;84.42;101296.16;104915;1271;59284;-76
2022/01/18 17:45:23;;;;;;;20.90;5.40;;;;;;;-0.60;85.30;101298.42;105165;1271;59846;-73
2022/01/18 17:48:19;;;;;;;19.60;6.50;;;;;;;-0.57;86.47;101304.29;104933;1274;71138;-75
2022/01/18 17:51:15;;;;;;;17.00;5.20;;;;;;;-0.55;87.43;101294.70;105285;1271;68044;-74
2022/01/18 17:54:08;;;;;;;13.90;4.90;;;;;;;-0.52;88.25;101288.89;104899;1271;72378;-74
2022/01/18 17:57:01;;;;;;;15.80;4.80;;;;;;;-0.49;89.42;101293.22;105141;1274;59391;-75
2022/01/18 17:59:52;;;;;;;22.70;5.50;;;;;;;-0.45;89.01;101289.34;104996;1274;63133;-74
2022/01/18 18:02:40;;;;;;;18.30;5.70;;;;;;;-0.40;89.09;101290.32;104976;1271;72784;-74
2022/01/18 18:05:29;;;;;;;13.10;4.50;;;;;;;-0.34;89.99;101293.03;105171;1271;66130;-75
2022/01/18 18:08:18;;;;;;;22.10;6.30;;;;;;;-0.28;90.00;101280.06;104970;1271;73085;-74
2022/01/18 18:11:16;;;;;;;14.20;5.00;;;;;;;-0.24;90.69;101274.93;105574;1271;59417;-75
2022/01/18 18:14:05;;;;;;;17.60;5.50;;;;;;;-0.20;90.23;101279.41;104379;1274;1002966;-76
2022/01/18 18:16:55;;;;;;;14.20;4.90;;;;;;;-0.17;90.21;101284.43;104093;1274;1002943;-75
2022/01/18 18:19:48;;;;;;;18.70;5.60;;;;;;;-0.15;90.63;101286.14;105107;1274;68170;-75
2022/01/18 18:23:02;;;;;;;18.10;5.10;;;;;;;-0.11;90.52;101268.84;104921;1271;73493;-75
2022/01/18 18:26:04;;;;;;;20.10;5.80;;;;;;;-0.06;90.69;101257.75;105347;1271;59891;-75
2022/01/18 18:29:23;;;;;;;22.90;5.30;;;;;;;0.02;90.46;101250.67;105200;1271;59416;-74
2022/01/18 18:32:20;;;;;;;17.70;4.20;;;;;;;0.05;90.07;101244.68;105032;1271;70742;-75
2022/01/18 18:35:20;;;;;;;20.20;5.30;;;;;;;0.04;89.89;101240.69;104435;1271;1003236;-75
2022/01/18 18:38:15;;;;;;;17.10;4.60;;;;;;;0.04;89.92;101233.89;105230;1271;72194;-75
2022/01/18 18:41:08;;;;;;;20.40;5.10;;;;;;;0.01;89.94;101242.31;104955;1274;59623;-73
2022/01/18 18:44:15;;;;;;;22.90;5.50;;;;;;;-0.02;89.76;101252.29;105126;1271;61259;-74
2022/01/18 18:47:18;;;;;;;17.00;5.70;;;;;;;-0.04;89.74;101256.69;105022;1274;71543;-74
2022/01/18 18:50:07;;;;;;;17.60;4.90;;;;;;;-0.03;89.57;101261.38;104833;1274;66725;-74
2022/01/18 18:52:59;;;;;;;21.50;5.00;;;;;;;-0.00;89.89;101265.02;104801;1274;73202;-74
2022/01/18 18:55:49;;;;;;;19.30;4.50;;;;;;;0.02;89.96;101262.55;104747;1274;59302;-73
2022/01/18 18:59:03;;;;;;;21.30;5.30;;;;;;;0.05;89.82;101260.73;104895;1274;59493;-74
2022/01/18 19:04:56;;;;;;;16.80;3.80;;;;;;;0.12;89.95;101245.98;104970;1276;68518;-74
2022/01/18 19:07:44;;;;;;;16.90;4.20;;;;;;;0.16;89.51;101238.59;104606;1275;73215;-74
2022/01/18 19:11:20;;;;;;;15.70;4.30;;;;;;;0.22;89.77;101239.18;105131;1274;59860;-75
2022/01/18 19:14:44;;;;;;;13.90;4.10;;;;;;;0.32;89.61;101235.71;105204;1273;59388;-74
2022/01/18 19:18:25;;;;;;;17.20;4.00;;;;;;;0.40;89.79;101253.73;105396;1273;71238;-74
2022/01/18 19:21:28;;;;;;;23.80;4.80;;;;;;;0.47;89.71;101247.15;105057;1274;67426;-75
2022/01/18 19:24:40;;;;;;;25.80;5.90;;;;;;;0.52;89.66;101242.01;104981;1274;71809;-75
2022/01/18 19:28:04;;;;;;;16.50;3.90;;;;;;;0.58;89.52;101249.41;104586;1273;1002531;-75
2022/01/18 19:31:28;;;;;;;20.40;5.20;;;;;;;0.64;90.50;101239.54;104893;1273;60361;-75
2022/01/18 19:34:52;;;;;;;21.00;5.10;;;;;;;0.69;89.78;101229.48;105421;1274;71221;-75
2022/01/18 19:37:59;;;;;;;18.10;4.50;;;;;;;0.72;89.49;101225.77;105376;1274;68916;-74
2022/01/18 19:45:34;;;;;;;17.60;3.70;;;;;;;0.82;89.34;101196.57;105324;1279;59826;-76
2022/01/18 19:48:22;;;;;;;16.10;3.60;;;;;;;0.84;89.31;101186.21;104216;1279;59348;-77
2022/01/18 19:51:42;;;;;;;15.20;3.80;;;;;;;0.85;89.41;101182.36;104424;1280;72647;-75
2022/01/18 19:54:57;;;;;;;18.00;4.10;;;;;;;0.85;89.73;101182.02;104493;1279;67262;-75
2022/01/18 19:58:03;;;;;;;19.00;4.30;;;;;;;0.84;89.66;101178.89;104767;1279;73142;-76
2022/01/18 20:00:56;;;;;;;11.50;3.50;;;;;;;0.84;89.68;101191.10;104644;1279;59945;-73
2022/01/18 20:03:46;;;;;;;17.90;5.00;;;;;;;0.85;90.75;101190.58;104359;1279;59405;-72
2022/01/18 20:06:41;;;;;;;16.30;4.80;;;;;;;0.86;90.91;101191.08;104681;1279;71244;-75
2022/01/18 20:09:52;;;;;;;16.80;3.90;;;;;;;0.88;90.84;101190.86;105188;1279;67974;-73
2022/01/18 20:12:48;;;;;;;17.70;4.50;;;;;;;0.89;91.54;101187.00;104391;1279;70851;-74
2022/01/18 20:16:39;;;;;;;16.20;3.80;;;;;;;0.89;91.58;101178.77;105066;1273;59881;-74
2022/01/18 20:19:41;;;;;;;16.20;5.10;;;;;;;0.88;92.36;101171.64;104991;1273;59433;-75
2022/01/18 20:23:10;;;;;;;14.60;4.40;;;;;;;0.88;93.03;101157.81;105043;1273;70054;-75
2022/01/18 20:26:08;;;;;;;15.90;4.20;;;;;;;0.88;93.26;101147.52;104766;1273;68143;-73
2022/01/18 20:29:13;;;;;;;14.50;3.30;;;;;;;0.86;94.06;101136.91;105552;1273;70611;-75
2022/01/18 20:32:17;;;;;;;13.10;4.80;;;;;;;0.87;94.77;101142.66;105346;1273;59773;-75
2022/01/18 20:35:31;;;;;;;15.10;3.60;;;;;;;0.86;95.97;101147.38;105068;1273;59410;-75
2022/01/18 20:38:27;;;;;;;15.50;4.30;;;;;;;0.85;96.83;101154.58;105141;1274;72684;-69
2022/01/18 20:41:25;;;;;;;10.50;3.30;;;;;;;0.85;96.34;101152.48;104875;1271;68687;-67
2022/01/18 20:44:18;;;;;;;14.80;3.70;;;;;;;0.85;96.97;101144.25;105136;1273;70704;-69
2022/01/18 20:47:09;;;;;;;13.20;3.60;;;;;;;0.85;97.50;101132.71;104800;1274;59779;-69
2022/01/18 20:50:38;;;;;;;11.20;3.40;;;;;;;0.85;98.43;101124.88;104929;1273;59306;-69
2022/01/18 20:54:55;;;;;;;10.00;3.00;;;;;;;0.85;98.13;101124.36;105006;1279;70989;-68
2022/01/18 20:58:01;;;;;;;12.90;3.90;;;;;;;0.85;98.20;101107.23;104558;1279;67388;-68
2022/01/18 21:00:57;;;;;;;12.80;4.10;;;;;;;0.87;98.16;101107.19;105014;1279;70358;-69
2022/01/18 21:03:52;;;;;;;12.80;3.90;;;;;;;0.87;98.56;101106.65;104390;1279;59812;-68
2022/01/18 21:07:09;;;;;;;10.50;3.90;;;;;;;0.88;98.87;101098.42;104557;1279;61916;-69
2022/01/18 21:10:05;;;;;;;11.40;3.90;;;;;;;0.90;98.90;101104.16;104707;1278;72568;-68
2022/01/18 21:13:10;;;;;;;11.60;3.10;;;;;;;0.93;98.35;101099.71;104693;1279;68114;-68
2022/01/18 21:16:00;;;;;;;12.40;4.40;;;;;;;0.93;99.04;101099.19;104349;1280;72935;-68
2022/01/18 21:18:50;;;;;;;12.70;4.20;;;;;;;0.94;99.02;101100.21;104325;1279;59821;-68
2022/01/18 21:21:41;;;;;;;11.20;4.20;;;;;;;0.96;98.64;101097.90;104474;1280;60435;-68
2022/01/18 21:24:34;;;;;;;10.30;4.10;;;;;;;1.00;98.70;101088.56;104505;1279;72737;-68
2022/01/18 21:27:33;;;;;;;13.50;4.20;;;;;;;1.03;98.84;101090.44;104322;1279;68323;-68
2022/01/18 21:30:28;;;;;;;12.30;4.20;;;;;;;1.05;99.01;101080.42;104543;1274;71948;-68
2022/01/18 21:33:19;;;;;;;11.30;3.90;;;;;;;1.07;99.12;101078.80;104801;1274;59801;-68
2022/01/18 21:36:08;;;;;;;10.30;3.10;;;;;;;1.09;98.89;101075.07;104905;1274;59351;-69
2022/01/18 21:39:13;;;;;;;9.70;3.80;;;;;;;1.11;98.84;101065.95;104820;1274;72058;-68
2022/01/18 21:42:06;;;;;;;11.10;3.70;;;;;;;1.12;98.84;101064.88;104868;1273;68588;-69
2022/01/18 21:45:06;;;;;;;;;;;;;;;;;;;;;
2022/01/18 21:48:08;;;;;;;10.40;4.40;;;;;;;1.12;99.05;101057.02;104955;1273;59799;-69
2022/01/18 21:51:17;;;;;;;11.70;4.00;;;;;;;1.14;98.76;101051.88;105050;1273;59401;-69
2022/01/18 21:54:13;;;;;;;11.50;4.00;;;;;;;1.17;98.86;101055.31;105092;1273;72644;-68
2022/01/18 21:57:18;;;;;;;9.80;4.10;;;;;;;1.22;98.10;101055.58;105101;1273;68304;-69
2022/01/18 22:00:15;;;;;;;11.20;4.20;;;;;;;1.25;98.34;101044.81;105025;1272;73194;-68
2022/01/18 22:03:07;;;;;;;11.80;4.40;;;;;;;1.27;98.16;101044.59;104779;1274;59898;-68
2022/01/18 22:05:59;;;;;;;12.60;4.30;;;;;;;1.30;98.11;101036.13;104952;1274;59671;-68
2022/01/18 22:08:57;;;;;;;11.20;4.00;;;;;;;1.32;98.05;101027.86;104988;1274;71581;-69
2022/01/18 22:14:00;;;;;;;11.10;4.50;;;;;;;1.35;98.06;101020.96;105124;1271;67212;-68
2022/01/18 22:17:31;;;;;;;10.00;4.30;;;;;;;1.41;97.87;101010.85;104611;1281;71557;-68
2022/01/18 22:20:21;;;;;;;13.20;4.10;;;;;;;1.44;98.27;101008.52;104320;1281;59427;-69
2022/01/18 22:23:15;;;;;;;11.40;4.00;;;;;;;1.47;98.00;101010.05;104159;1281;60870;-68
2022/01/18 22:26:06;;;;;;;11.60;4.10;;;;;;;1.47;98.14;101008.81;104183;1281;72780;-68
2022/01/18 22:28:55;;;;;;;12.20;5.10;;;;;;;1.46;98.26;101010.92;104347;1281;68288;-68
2022/01/18 22:31:45;;;;;;;12.90;4.00;;;;;;;1.47;98.07;101010.38;104245;1281;73157;-68
2022/01/18 22:34:34;;;;;;;12.00;4.60;;;;;;;1.49;97.93;101010.67;104024;1282;59325;-69
2022/01/18 22:37:24;;;;;;;14.70;5.20;;;;;;;1.52;97.86;101001.33;104189;1281;60506;-68
2022/01/18 22:40:19;;;;;;;12.00;4.40;;;;;;;1.55;97.69;100991.98;107639;1281;72684;-69
2022/01/18 22:43:16;;;;;;;10.40;4.10;;;;;;;1.58;98.10;100989.96;107016;1281;67879;-69
2022/01/18 22:46:07;;;;;;;11.10;4.00;;;;;;;1.62;98.02;100979.03;104787;1281;73038;-68
2022/01/18 22:48:59;;;;;;;9.90;3.60;;;;;;;1.65;97.56;100980.00;103935;1285;59439;-68
2022/01/18 22:51:49;;;;;;;11.20;3.80;;;;;;;1.66;97.65;100975.78;104138;1281;60435;-70
2022/01/18 22:54:42;;;;;;;11.40;4.80;;;;;;;1.68;97.61;100976.77;104765;1274;72574;-70
2022/01/18 22:57:32;;;;;;;11.80;3.80;;;;;;;1.69;97.71;100964.15;104832;1273;66820;-70
2022/01/18 23:00:40;;;;;;;12.10;5.10;;;;;;;1.69;98.14;100955.39;104795;1273;72948;-71
2022/01/18 23:03:32;;;;;;;8.90;4.00;;;;;;;1.72;98.04;100947.45;105139;1273;59981;-69
2022/01/18 23:06:22;;;;;;;9.30;3.80;;;;;;;1.73;98.36;100936.06;105030;1274;60592;-70
2022/01/18 23:09:13;;;;;;;7.50;3.20;;;;;;;1.73;98.31;100929.59;104811;1274;72499;-70
2022/01/18 23:12:04;;;;;;;11.10;4.30;;;;;;;1.72;98.63;100922.26;104897;1274;67560;-70
2022/01/18 23:14:54;;;;;;;11.40;4.30;;;;;;;1.72;98.38;100921.55;104894;1274;73205;-69
2022/01/18 23:17:47;;;;;;;10.70;4.30;;;;;;;1.74;98.12;100922.19;104861;1274;59285;-69
2022/01/18 23:20:37;;;;;;;9.60;4.20;;;;;;;1.76;98.31;100913.75;104885;1274;59509;-70
2022/01/18 23:23:27;;;;;;;9.90;4.20;;;;;;;1.79;98.27;100913.33;104884;1274;72810;-70
2022/01/18 23:27:07;;;;;;;;;;;;;;;;;;;;;
2022/01/18 23:30:09;;;;;;;10.10;4.60;;;;;;;1.86;97.78;100900.52;105126;1274;71470;-70
2022/01/18 23:33:00;;;;;;;10.30;3.60;;;;;;;1.89;97.93;100891.16;104945;1274;59332;-69
2022/01/18 23:36:02;;;;;;;11.80;4.50;;;;;;;1.90;97.90;100879.23;104968;1273;59599;-70
2022/01/18 23:39:04;;;;;;;11.90;4.30;;;;;;;1.93;98.01;100875.66;104671;1274;74189;-69
2022/01/18 23:42:06;;;;;;;18.20;4.90;;;;;;;1.94;98.09;100874.93;104065;1273;1015937;-69
2022/01/18 23:45:33;;;;;;;11.80;4.60;;;;;;;1.96;97.87;100861.58;105187;1274;71722;-68
2022/01/18 23:49:07;;;;;;;11.50;4.20;;;;;;;1.98;97.54;100860.09;104779;1274;59311;-68
2022/01/18 23:51:57;;;;;;;10.60;4.30;;;;;;;2.00;97.34;100857.06;104308;1278;59760;-69
2022/01/18 23:54:46;;;;;;;10.30;3.70;;;;;;;2.01;97.13;100855.45;104273;1280;71756;-69
2022/01/18 23:57:36;;;;;;;12.70;5.10;;;;;;;2.02;96.79;100851.20;104526;1278;66979;-69
